sensor_id;sensor_type;location;lat;lon;timestamp;P1;durP1;ratioP1;P2;durP2;ratioP2
69989;SDS011;57331;52.054;5.294;2023-04-03T00:00:53;5.93;;;2.03;;
69989;SDS011;57331;52.054;5.294;2023-04-03T00:03:20;9.98;;;1.80;;
69989;SDS011;57331;52.054;5.294;2023-04-03T00:05:48;5.72;;;2.17;;
69989;SDS011;57331;52.054;5.294;2023-04-03T00:08:15;7.55;;;2.17;;
69989;SDS011;57331;52.054;5.294;2023-04-03T00:10:42;4.63;;;1.80;;
69989;SDS011;57331;52.054;5.294;2023-04-03T00:13:10;4.87;;;1.90;;
69989;SDS011;57331;52.054;5.294;2023-04-03T00:15:38;4.32;;;2.00;;
69989;SDS011;57331;52.054;5.294;2023-04-03T00:18:05;5.72;;;2.35;;
69989;SDS011;57331;52.054;5.294;2023-04-03T00:20:33;5.20;;;1.80;;
69989;SDS011;57331;52.054;5.294;2023-04-03T00:23:00;6.13;;;1.90;;
69989;SDS011;57331;52.054;5.294;2023-04-03T00:25:28;4.83;;;1.63;;
69989;SDS011;57331;52.054;5.294;2023-04-03T00:27:55;7.28;;;2.30;;
69989;SDS011;57331;52.054;5.294;2023-04-03T00:30:23;4.53;;;1.80;;
69989;SDS011;57331;52.054;5.294;2023-04-03T00:32:50;5.60;;;1.98;;
69989;SDS011;57331;52.054;5.294;2023-04-03T00:35:19;4.25;;;1.95;;
69989;SDS011;57331;52.054;5.294;2023-04-03T00:37:47;4.37;;;1.80;;
69989;SDS011;57331;52.054;5.294;2023-04-03T00:40:17;7.35;;;1.85;;
69989;SDS011;57331;52.054;5.294;2023-04-03T00:42:45;6.20;;;2.33;;
69989;SDS011;57331;52.054;5.294;2023-04-03T00:45:24;4.95;;;2.00;;
69989;SDS011;57331;52.054;5.294;2023-04-03T00:47:54;5.88;;;1.98;;
69989;SDS011;57331;52.054;5.294;2023-04-03T00:50:22;4.80;;;1.60;;
69989;SDS011;57331;52.054;5.294;2023-04-03T00:52:49;6.82;;;1.90;;
69989;SDS011;57331;52.054;5.294;2023-04-03T00:55:17;5.53;;;2.00;;
69989;SDS011;57331;52.054;5.294;2023-04-03T00:57:45;4.43;;;1.80;;
69989;SDS011;57331;52.054;5.294;2023-04-03T01:00:14;4.78;;;2.15;;
69989;SDS011;57331;52.054;5.294;2023-04-03T01:02:43;5.53;;;1.80;;
69989;SDS011;57331;52.054;5.294;2023-04-03T01:05:13;4.90;;;1.90;;
69989;SDS011;57331;52.054;5.294;2023-04-03T01:07:43;5.53;;;2.03;;
69989;SDS011;57331;52.054;5.294;2023-04-03T01:10:12;7.57;;;2.00;;
69989;SDS011;57331;52.054;5.294;2023-04-03T01:12:42;4.45;;;1.88;;
69989;SDS011;57331;52.054;5.294;2023-04-03T01:15:20;3.80;;;1.53;;
69989;SDS011;57331;52.054;5.294;2023-04-03T01:17:53;7.07;;;2.00;;
69989;SDS011;57331;52.054;5.294;2023-04-03T01:23:12;6.50;;;1.80;;
69989;SDS011;57331;52.054;5.294;2023-04-03T01:25:50;4.28;;;1.85;;
69989;SDS011;57331;52.054;5.294;2023-04-03T01:28:24;5.00;;;2.30;;
69989;SDS011;57331;52.054;5.294;2023-04-03T01:33:55;6.88;;;2.20;;
69989;SDS011;57331;52.054;5.294;2023-04-03T01:36:24;4.40;;;1.80;;
69989;SDS011;57331;52.054;5.294;2023-04-03T01:38:54;8.02;;;1.90;;
69989;SDS011;57331;52.054;5.294;2023-04-03T01:41:22;3.77;;;1.60;;
69989;SDS011;57331;52.054;5.294;2023-04-03T01:43:52;6.00;;;2.10;;
69989;SDS011;57331;52.054;5.294;2023-04-03T01:46:20;4.40;;;1.90;;
69989;SDS011;57331;52.054;5.294;2023-04-03T01:48:47;8.52;;;2.10;;
69989;SDS011;57331;52.054;5.294;2023-04-03T01:51:15;6.57;;;2.03;;
69989;SDS011;57331;52.054;5.294;2023-04-03T01:53:42;4.97;;;1.90;;
69989;SDS011;57331;52.054;5.294;2023-04-03T01:56:10;6.85;;;2.00;;
69989;SDS011;57331;52.054;5.294;2023-04-03T01:58:37;5.05;;;2.22;;
69989;SDS011;57331;52.054;5.294;2023-04-03T02:01:04;8.73;;;2.20;;
69989;SDS011;57331;52.054;5.294;2023-04-03T02:03:32;7.10;;;2.20;;
69989;SDS011;57331;52.054;5.294;2023-04-03T02:06:00;5.47;;;2.03;;
69989;SDS011;57331;52.054;5.294;2023-04-03T02:08:27;10.77;;;2.05;;
69989;SDS011;57331;52.054;5.294;2023-04-03T02:10:54;5.97;;;2.20;;
69989;SDS011;57331;52.054;5.294;2023-04-03T02:13:22;5.78;;;2.20;;
69989;SDS011;57331;52.054;5.294;2023-04-03T02:15:49;8.88;;;2.00;;
69989;SDS011;57331;52.054;5.294;2023-04-03T02:18:17;4.77;;;1.90;;
69989;SDS011;57331;52.054;5.294;2023-04-03T02:20:44;5.43;;;2.00;;
69989;SDS011;57331;52.054;5.294;2023-04-03T02:23:11;8.60;;;2.28;;
69989;SDS011;57331;52.054;5.294;2023-04-03T02:25:38;4.65;;;1.90;;
69989;SDS011;57331;52.054;5.294;2023-04-03T02:28:06;9.32;;;2.38;;
69989;SDS011;57331;52.054;5.294;2023-04-03T02:30:33;7.90;;;2.53;;
69989;SDS011;57331;52.054;5.294;2023-04-03T02:33:01;7.05;;;2.10;;
69989;SDS011;57331;52.054;5.294;2023-04-03T02:35:29;8.77;;;2.60;;
69989;SDS011;57331;52.054;5.294;2023-04-03T02:37:57;5.53;;;2.28;;
69989;SDS011;57331;52.054;5.294;2023-04-03T02:40:24;5.55;;;1.98;;
69989;SDS011;57331;52.054;5.294;2023-04-03T02:42:52;6.63;;;2.07;;
69989;SDS011;57331;52.054;5.294;2023-04-03T02:45:20;6.90;;;2.50;;
69989;SDS011;57331;52.054;5.294;2023-04-03T02:47:48;7.18;;;2.20;;
69989;SDS011;57331;52.054;5.294;2023-04-03T02:50:15;4.55;;;2.03;;
69989;SDS011;57331;52.054;5.294;2023-04-03T02:52:43;6.60;;;2.50;;
69989;SDS011;57331;52.054;5.294;2023-04-03T02:55:13;6.80;;;2.33;;
69989;SDS011;57331;52.054;5.294;2023-04-03T02:57:42;7.03;;;2.58;;
69989;SDS011;57331;52.054;5.294;2023-04-03T03:00:11;9.10;;;2.28;;
69989;SDS011;57331;52.054;5.294;2023-04-03T03:02:39;7.25;;;2.40;;
69989;SDS011;57331;52.054;5.294;2023-04-03T03:05:06;8.50;;;2.33;;
69989;SDS011;57331;52.054;5.294;2023-04-03T03:07:34;6.03;;;2.10;;
69989;SDS011;57331;52.054;5.294;2023-04-03T03:10:01;5.03;;;2.08;;
69989;SDS011;57331;52.054;5.294;2023-04-03T03:12:28;5.75;;;2.25;;
69989;SDS011;57331;52.054;5.294;2023-04-03T03:14:58;6.80;;;2.53;;
69989;SDS011;57331;52.054;5.294;2023-04-03T03:17:26;7.50;;;2.42;;
69989;SDS011;57331;52.054;5.294;2023-04-03T03:19:53;6.27;;;2.17;;
69989;SDS011;57331;52.054;5.294;2023-04-03T03:22:21;7.03;;;2.65;;
69989;SDS011;57331;52.054;5.294;2023-04-03T03:24:48;8.55;;;2.58;;
69989;SDS011;57331;52.054;5.294;2023-04-03T03:27:16;8.65;;;2.40;;
69989;SDS011;57331;52.054;5.294;2023-04-03T03:29:43;6.38;;;2.20;;
69989;SDS011;57331;52.054;5.294;2023-04-03T03:32:12;7.70;;;2.20;;
69989;SDS011;57331;52.054;5.294;2023-04-03T03:34:39;6.55;;;2.42;;
69989;SDS011;57331;52.054;5.294;2023-04-03T03:37:06;5.32;;;2.40;;
69989;SDS011;57331;52.054;5.294;2023-04-03T03:39:33;6.03;;;2.10;;
69989;SDS011;57331;52.054;5.294;2023-04-03T03:42:01;5.47;;;2.20;;
69989;SDS011;57331;52.054;5.294;2023-04-03T03:44:28;7.80;;;2.63;;
69989;SDS011;57331;52.054;5.294;2023-04-03T03:46:56;7.60;;;2.50;;
69989;SDS011;57331;52.054;5.294;2023-04-03T03:49:24;6.38;;;2.55;;
69989;SDS011;57331;52.054;5.294;2023-04-03T03:51:51;10.15;;;2.80;;
69989;SDS011;57331;52.054;5.294;2023-04-03T03:54:18;8.80;;;2.47;;
69989;SDS011;57331;52.054;5.294;2023-04-03T03:56:46;7.07;;;2.77;;
69989;SDS011;57331;52.054;5.294;2023-04-03T03:59:13;6.30;;;2.67;;
69989;SDS011;57331;52.054;5.294;2023-04-03T04:01:40;6.93;;;2.38;;
69989;SDS011;57331;52.054;5.294;2023-04-03T04:04:07;5.28;;;2.30;;
69989;SDS011;57331;52.054;5.294;2023-04-03T04:06:35;5.82;;;2.50;;
69989;SDS011;57331;52.054;5.294;2023-04-03T04:09:05;7.47;;;2.73;;
69989;SDS011;57331;52.054;5.294;2023-04-03T04:11:32;8.45;;;2.55;;
69989;SDS011;57331;52.054;5.294;2023-04-03T04:14:00;7.88;;;2.95;;
69989;SDS011;57331;52.054;5.294;2023-04-03T04:16:28;6.63;;;2.28;;
69989;SDS011;57331;52.054;5.294;2023-04-03T04:19:00;6.60;;;2.17;;
69989;SDS011;57331;52.054;5.294;2023-04-03T04:21:28;8.73;;;2.43;;
69989;SDS011;57331;52.054;5.294;2023-04-03T04:23:56;6.38;;;2.60;;
69989;SDS011;57331;52.054;5.294;2023-04-03T04:26:24;7.22;;;2.58;;
69989;SDS011;57331;52.054;5.294;2023-04-03T04:28:51;8.07;;;2.50;;
69989;SDS011;57331;52.054;5.294;2023-04-03T04:31:19;10.80;;;2.83;;
69989;SDS011;57331;52.054;5.294;2023-04-03T04:33:47;8.00;;;2.70;;
69989;SDS011;57331;52.054;5.294;2023-04-03T04:36:15;6.10;;;2.50;;
69989;SDS011;57331;52.054;5.294;2023-04-03T04:38:45;9.95;;;2.80;;
69989;SDS011;57331;52.054;5.294;2023-04-03T04:41:12;5.03;;;2.50;;
69989;SDS011;57331;52.054;5.294;2023-04-03T04:43:41;9.68;;;2.90;;
69989;SDS011;57331;52.054;5.294;2023-04-03T04:46:09;6.17;;;2.57;;
69989;SDS011;57331;52.054;5.294;2023-04-03T04:48:45;7.68;;;2.90;;
69989;SDS011;57331;52.054;5.294;2023-04-03T04:51:13;9.45;;;2.60;;
69989;SDS011;57331;52.054;5.294;2023-04-03T04:53:40;10.45;;;2.70;;
69989;SDS011;57331;52.054;5.294;2023-04-03T04:56:11;8.98;;;3.00;;
69989;SDS011;57331;52.054;5.294;2023-04-03T04:58:39;7.07;;;2.63;;
69989;SDS011;57331;52.054;5.294;2023-04-03T05:01:08;8.07;;;2.78;;
69989;SDS011;57331;52.054;5.294;2023-04-03T05:03:48;7.25;;;2.40;;
69989;SDS011;57331;52.054;5.294;2023-04-03T05:06:17;8.60;;;3.28;;
69989;SDS011;57331;52.054;5.294;2023-04-03T05:08:44;7.00;;;2.85;;
69989;SDS011;57331;52.054;5.294;2023-04-03T05:11:12;8.80;;;3.17;;
69989;SDS011;57331;52.054;5.294;2023-04-03T05:13:40;10.43;;;2.90;;
69989;SDS011;57331;52.054;5.294;2023-04-03T05:16:07;7.07;;;3.13;;
69989;SDS011;57331;52.054;5.294;2023-04-03T05:18:35;7.85;;;2.58;;
69989;SDS011;57331;52.054;5.294;2023-04-03T05:21:07;10.38;;;2.83;;
69989;SDS011;57331;52.054;5.294;2023-04-03T05:23:34;8.00;;;3.00;;
69989;SDS011;57331;52.054;5.294;2023-04-03T05:26:03;5.47;;;2.63;;
69989;SDS011;57331;52.054;5.294;2023-04-03T05:28:30;6.82;;;2.83;;
69989;SDS011;57331;52.054;5.294;2023-04-03T05:30:59;8.45;;;2.95;;
69989;SDS011;57331;52.054;5.294;2023-04-03T05:33:31;12.40;;;4.60;;
69989;SDS011;57331;52.054;5.294;2023-04-03T05:36:03;7.13;;;3.17;;
69989;SDS011;57331;52.054;5.294;2023-04-03T05:38:36;7.30;;;2.85;;
69989;SDS011;57331;52.054;5.294;2023-04-03T05:41:03;9.77;;;3.25;;
69989;SDS011;57331;52.054;5.294;2023-04-03T05:43:31;7.25;;;2.95;;
69989;SDS011;57331;52.054;5.294;2023-04-03T05:46:01;6.43;;;2.75;;
69989;SDS011;57331;52.054;5.294;2023-04-03T05:48:28;12.47;;;3.70;;
69989;SDS011;57331;52.054;5.294;2023-04-03T05:50:56;8.90;;;3.40;;
69989;SDS011;57331;52.054;5.294;2023-04-03T05:53:27;9.73;;;3.40;;
69989;SDS011;57331;52.054;5.294;2023-04-03T05:55:58;6.55;;;3.15;;
69989;SDS011;57331;52.054;5.294;2023-04-03T05:58:27;6.75;;;2.83;;
69989;SDS011;57331;52.054;5.294;2023-04-03T06:00:55;9.07;;;3.13;;
69989;SDS011;57331;52.054;5.294;2023-04-03T06:03:23;10.23;;;3.20;;
69989;SDS011;57331;52.054;5.294;2023-04-03T06:05:50;9.65;;;3.15;;
69989;SDS011;57331;52.054;5.294;2023-04-03T06:08:18;14.55;;;2.90;;
69989;SDS011;57331;52.054;5.294;2023-04-03T06:10:45;9.23;;;2.85;;
69989;SDS011;57331;52.054;5.294;2023-04-03T06:13:12;10.80;;;2.97;;
69989;SDS011;57331;52.054;5.294;2023-04-03T06:15:40;8.65;;;3.05;;
69989;SDS011;57331;52.054;5.294;2023-04-03T06:18:08;10.45;;;2.80;;
69989;SDS011;57331;52.054;5.294;2023-04-03T06:20:36;24.25;;;8.45;;
69989;SDS011;57331;52.054;5.294;2023-04-03T06:23:04;16.48;;;5.28;;
69989;SDS011;57331;52.054;5.294;2023-04-03T06:25:33;6.97;;;3.03;;
69989;SDS011;57331;52.054;5.294;2023-04-03T06:28:01;7.50;;;2.97;;
69989;SDS011;57331;52.054;5.294;2023-04-03T06:30:28;6.85;;;3.40;;
69989;SDS011;57331;52.054;5.294;2023-04-03T06:32:56;13.13;;;3.42;;
69989;SDS011;57331;52.054;5.294;2023-04-03T06:35:23;8.15;;;3.40;;
69989;SDS011;57331;52.054;5.294;2023-04-03T06:37:51;6.70;;;2.70;;
69989;SDS011;57331;52.054;5.294;2023-04-03T06:40:20;9.40;;;3.00;;
69989;SDS011;57331;52.054;5.294;2023-04-03T06:42:49;7.50;;;3.33;;
69989;SDS011;57331;52.054;5.294;2023-04-03T06:45:18;8.35;;;2.72;;
69989;SDS011;57331;52.054;5.294;2023-04-03T06:47:46;9.07;;;3.10;;
69989;SDS011;57331;52.054;5.294;2023-04-03T06:50:13;7.97;;;2.87;;
69989;SDS011;57331;52.054;5.294;2023-04-03T06:52:41;12.57;;;3.75;;
69989;SDS011;57331;52.054;5.294;2023-04-03T06:55:08;6.90;;;2.67;;
69989;SDS011;57331;52.054;5.294;2023-04-03T06:57:36;6.65;;;3.00;;
69989;SDS011;57331;52.054;5.294;2023-04-03T07:00:04;9.68;;;2.72;;
69989;SDS011;57331;52.054;5.294;2023-04-03T07:02:32;10.67;;;4.23;;
69989;SDS011;57331;52.054;5.294;2023-04-03T07:05:00;7.68;;;2.90;;
69989;SDS011;57331;52.054;5.294;2023-04-03T07:07:27;6.85;;;2.00;;
69989;SDS011;57331;52.054;5.294;2023-04-03T07:09:54;9.32;;;3.15;;
69989;SDS011;57331;52.054;5.294;2023-04-03T07:12:22;9.30;;;2.90;;
69989;SDS011;57331;52.054;5.294;2023-04-03T07:14:49;10.27;;;2.80;;
69989;SDS011;57331;52.054;5.294;2023-04-03T07:17:16;5.47;;;2.53;;
69989;SDS011;57331;52.054;5.294;2023-04-03T07:19:43;10.15;;;2.80;;
69989;SDS011;57331;52.054;5.294;2023-04-03T07:22:11;10.55;;;2.75;;
69989;SDS011;57331;52.054;5.294;2023-04-03T07:24:38;6.00;;;2.72;;
69989;SDS011;57331;52.054;5.294;2023-04-03T07:27:05;9.00;;;2.57;;
69989;SDS011;57331;52.054;5.294;2023-04-03T07:29:34;6.45;;;2.67;;
69989;SDS011;57331;52.054;5.294;2023-04-03T07:32:02;6.93;;;2.60;;
69989;SDS011;57331;52.054;5.294;2023-04-03T07:34:29;6.28;;;2.83;;
69989;SDS011;57331;52.054;5.294;2023-04-03T07:36:57;10.85;;;2.47;;
69989;SDS011;57331;52.054;5.294;2023-04-03T07:39:24;6.10;;;2.43;;
69989;SDS011;57331;52.054;5.294;2023-04-03T07:41:52;7.80;;;2.50;;
69989;SDS011;57331;52.054;5.294;2023-04-03T07:44:19;8.27;;;2.92;;
69989;SDS011;57331;52.054;5.294;2023-04-03T07:46:46;7.57;;;2.80;;
69989;SDS011;57331;52.054;5.294;2023-04-03T07:49:14;8.05;;;2.80;;
69989;SDS011;57331;52.054;5.294;2023-04-03T07:51:42;7.00;;;2.80;;
69989;SDS011;57331;52.054;5.294;2023-04-03T07:54:10;7.88;;;2.45;;
69989;SDS011;57331;52.054;5.294;2023-04-03T07:56:37;6.82;;;2.75;;
69989;SDS011;57331;52.054;5.294;2023-04-03T07:59:05;10.90;;;3.20;;
69989;SDS011;57331;52.054;5.294;2023-04-03T08:01:33;8.00;;;2.70;;
69989;SDS011;57331;52.054;5.294;2023-04-03T08:04:00;6.93;;;2.80;;
69989;SDS011;57331;52.054;5.294;2023-04-03T08:06:28;8.20;;;2.58;;
69989;SDS011;57331;52.054;5.294;2023-04-03T08:09:11;10.27;;;2.50;;
69989;SDS011;57331;52.054;5.294;2023-04-03T08:11:39;10.43;;;2.67;;
69989;SDS011;57331;52.054;5.294;2023-04-03T08:14:06;7.15;;;2.85;;
69989;SDS011;57331;52.054;5.294;2023-04-03T08:16:34;8.37;;;2.60;;
69989;SDS011;57331;52.054;5.294;2023-04-03T08:19:02;5.35;;;2.40;;
69989;SDS011;57331;52.054;5.294;2023-04-03T08:21:34;7.80;;;2.45;;
69989;SDS011;57331;52.054;5.294;2023-04-03T08:24:02;8.57;;;2.42;;
69989;SDS011;57331;52.054;5.294;2023-04-03T08:26:30;8.77;;;2.58;;
69989;SDS011;57331;52.054;5.294;2023-04-03T08:28:57;9.13;;;2.40;;
69989;SDS011;57331;52.054;5.294;2023-04-03T08:31:24;9.80;;;2.60;;
69989;SDS011;57331;52.054;5.294;2023-04-03T08:33:52;6.72;;;2.83;;
69989;SDS011;57331;52.054;5.294;2023-04-03T08:36:20;7.57;;;2.47;;
69989;SDS011;57331;52.054;5.294;2023-04-03T08:38:52;7.05;;;2.70;;
69989;SDS011;57331;52.054;5.294;2023-04-03T08:49:32;6.35;;;2.10;;
69989;SDS011;57331;52.054;5.294;2023-04-03T08:52:05;5.95;;;2.17;;
69989;SDS011;57331;52.054;5.294;2023-04-03T08:57:17;6.13;;;2.00;;
69989;SDS011;57331;52.054;5.294;2023-04-03T08:59:53;5.20;;;2.20;;
69989;SDS011;57331;52.054;5.294;2023-04-03T09:02:29;4.25;;;2.00;;
69989;SDS011;57331;52.054;5.294;2023-04-03T09:05:02;4.82;;;2.03;;
69989;SDS011;57331;52.054;5.294;2023-04-03T09:07:39;4.50;;;1.70;;
69989;SDS011;57331;52.054;5.294;2023-04-03T09:10:14;4.85;;;1.80;;
69989;SDS011;57331;52.054;5.294;2023-04-03T09:12:57;4.13;;;1.77;;
69989;SDS011;57331;52.054;5.294;2023-04-03T09:15:39;4.55;;;2.10;;
69989;SDS011;57331;52.054;5.294;2023-04-03T09:18:16;7.78;;;1.92;;
69989;SDS011;57331;52.054;5.294;2023-04-03T09:23:46;5.20;;;1.83;;
69989;SDS011;57331;52.054;5.294;2023-04-03T09:26:21;6.15;;;2.33;;
69989;SDS011;57331;52.054;5.294;2023-04-03T09:28:55;4.80;;;2.50;;
69989;SDS011;57331;52.054;5.294;2023-04-03T09:31:28;4.07;;;2.00;;
69989;SDS011;57331;52.054;5.294;2023-04-03T09:34:02;4.73;;;1.77;;
69989;SDS011;57331;52.054;5.294;2023-04-03T09:36:49;4.65;;;1.92;;
69989;SDS011;57331;52.054;5.294;2023-04-03T09:39:25;6.03;;;1.75;;
69989;SDS011;57331;52.054;5.294;2023-04-03T09:44:33;2.85;;;1.58;;
69989;SDS011;57331;52.054;5.294;2023-04-03T09:47:18;3.13;;;1.73;;
69989;SDS011;57331;52.054;5.294;2023-04-03T09:50:41;3.50;;;1.50;;
69989;SDS011;57331;52.054;5.294;2023-04-03T09:52:48;4.43;;;1.58;;
69989;SDS011;57331;52.054;5.294;2023-04-03T09:55:24;3.17;;;1.60;;
69989;SDS011;57331;52.054;5.294;2023-04-03T09:58:00;4.50;;;1.60;;
69989;SDS011;57331;52.054;5.294;2023-04-03T10:00:36;3.77;;;1.87;;
69989;SDS011;57331;52.054;5.294;2023-04-03T10:03:08;7.15;;;3.10;;
69989;SDS011;57331;52.054;5.294;2023-04-03T10:05:52;4.07;;;1.98;;
69989;SDS011;57331;52.054;5.294;2023-04-03T10:08:26;2.88;;;1.50;;
69989;SDS011;57331;52.054;5.294;2023-04-03T10:11:14;4.95;;;1.80;;
69989;SDS011;57331;52.054;5.294;2023-04-03T10:13:50;3.13;;;1.57;;
69989;SDS011;57331;52.054;5.294;2023-04-03T10:16:27;4.38;;;1.85;;
69989;SDS011;57331;52.054;5.294;2023-04-03T10:19:05;4.80;;;1.63;;
69989;SDS011;57331;52.054;5.294;2023-04-03T10:24:21;3.38;;;1.80;;
69989;SDS011;57331;52.054;5.294;2023-04-03T10:34:50;2.65;;;1.42;;
69989;SDS011;57331;52.054;5.294;2023-04-03T10:43:04;3.17;;;1.52;;
69989;SDS011;57331;52.054;5.294;2023-04-03T10:45:49;3.95;;;1.73;;
69989;SDS011;57331;52.054;5.294;2023-04-03T10:48:53;3.45;;;1.70;;
69989;SDS011;57331;52.054;5.294;2023-04-03T10:51:43;2.92;;;1.60;;
69989;SDS011;57331;52.054;5.294;2023-04-03T10:54:26;4.43;;;1.57;;
69989;SDS011;57331;52.054;5.294;2023-04-03T10:57:03;3.28;;;1.65;;
69989;SDS011;57331;52.054;5.294;2023-04-03T10:59:40;2.90;;;1.40;;
69989;SDS011;57331;52.054;5.294;2023-04-03T11:04:42;3.10;;;1.67;;
69989;SDS011;57331;52.054;5.294;2023-04-03T11:07:15;4.43;;;1.60;;
69989;SDS011;57331;52.054;5.294;2023-04-03T11:09:48;3.90;;;1.80;;
69989;SDS011;57331;52.054;5.294;2023-04-03T11:12:41;3.88;;;1.77;;
69989;SDS011;57331;52.054;5.294;2023-04-03T11:15:15;3.55;;;1.50;;
69989;SDS011;57331;52.054;5.294;2023-04-03T11:18:28;3.95;;;1.88;;
69989;SDS011;57331;52.054;5.294;2023-04-03T11:20:42;4.40;;;1.70;;
69989;SDS011;57331;52.054;5.294;2023-04-03T11:25:44;4.55;;;2.00;;
69989;SDS011;57331;52.054;5.294;2023-04-03T11:28:16;3.88;;;1.80;;
69989;SDS011;57331;52.054;5.294;2023-04-03T11:33:47;3.80;;;2.10;;
69989;SDS011;57331;52.054;5.294;2023-04-03T11:36:26;4.15;;;2.00;;
69989;SDS011;57331;52.054;5.294;2023-04-03T11:50:39;6.63;;;2.20;;
69989;SDS011;57331;52.054;5.294;2023-04-03T11:58:03;6.10;;;2.40;;
69989;SDS011;57331;52.054;5.294;2023-04-03T12:13:41;6.00;;;2.60;;
69989;SDS011;57331;52.054;5.294;2023-04-03T12:19:24;9.30;;;2.95;;
69989;SDS011;57331;52.054;5.294;2023-04-03T12:22:12;4.50;;;2.30;;
69989;SDS011;57331;52.054;5.294;2023-04-03T12:24:44;3.90;;;1.90;;
69989;SDS011;57331;52.054;5.294;2023-04-03T12:27:18;4.30;;;2.10;;
69989;SDS011;57331;52.054;5.294;2023-04-03T12:30:04;4.93;;;2.28;;
69989;SDS011;57331;52.054;5.294;2023-04-03T12:35:40;4.13;;;2.30;;
69989;SDS011;57331;52.054;5.294;2023-04-03T12:38:41;5.35;;;2.50;;
69989;SDS011;57331;52.054;5.294;2023-04-03T12:44:54;5.00;;;2.40;;
69989;SDS011;57331;52.054;5.294;2023-04-03T12:47:33;10.70;;;4.85;;
69989;SDS011;57331;52.054;5.294;2023-04-03T12:50:28;7.50;;;2.20;;
69989;SDS011;57331;52.054;5.294;2023-04-03T12:52:57;6.43;;;2.67;;
69989;SDS011;57331;52.054;5.294;2023-04-03T12:55:29;5.43;;;2.40;;
69989;SDS011;57331;52.054;5.294;2023-04-03T12:57:56;4.50;;;2.30;;
69989;SDS011;57331;52.054;5.294;2023-04-03T13:00:34;4.88;;;2.40;;
69989;SDS011;57331;52.054;5.294;2023-04-03T13:03:06;4.55;;;2.38;;
69989;SDS011;57331;52.054;5.294;2023-04-03T13:05:45;4.55;;;2.40;;
69989;SDS011;57331;52.054;5.294;2023-04-03T13:08:13;4.83;;;2.40;;
69989;SDS011;57331;52.054;5.294;2023-04-03T13:11:25;5.13;;;2.47;;
69989;SDS011;57331;52.054;5.294;2023-04-03T13:13:34;5.43;;;2.60;;
69989;SDS011;57331;52.054;5.294;2023-04-03T13:16:07;5.05;;;2.60;;
69989;SDS011;57331;52.054;5.294;2023-04-03T13:18:37;4.85;;;2.50;;
69989;SDS011;57331;52.054;5.294;2023-04-03T13:21:08;5.13;;;2.40;;
69989;SDS011;57331;52.054;5.294;2023-04-03T13:23:45;4.63;;;2.40;;
69989;SDS011;57331;52.054;5.294;2023-04-03T13:26:18;5.35;;;2.50;;
69989;SDS011;57331;52.054;5.294;2023-04-03T13:28:48;5.03;;;2.50;;
69989;SDS011;57331;52.054;5.294;2023-04-03T13:31:21;5.10;;;2.42;;
69989;SDS011;57331;52.054;5.294;2023-04-03T13:34:12;4.93;;;2.57;;
69989;SDS011;57331;52.054;5.294;2023-04-03T13:36:54;5.35;;;2.20;;
69989;SDS011;57331;52.054;5.294;2023-04-03T13:39:31;4.75;;;2.78;;
69989;SDS011;57331;52.054;5.294;2023-04-03T13:42:02;5.35;;;2.35;;
69989;SDS011;57331;52.054;5.294;2023-04-03T13:44:42;5.15;;;2.58;;
69989;SDS011;57331;52.054;5.294;2023-04-03T13:49:37;6.10;;;2.65;;
69989;SDS011;57331;52.054;5.294;2023-04-03T13:55:28;4.63;;;2.50;;
69989;SDS011;57331;52.054;5.294;2023-04-03T13:58:16;4.95;;;2.30;;
69989;SDS011;57331;52.054;5.294;2023-04-03T14:00:49;4.47;;;2.43;;
69989;SDS011;57331;52.054;5.294;2023-04-03T14:05:59;5.28;;;2.45;;
69989;SDS011;57331;52.054;5.294;2023-04-03T14:08:27;4.40;;;2.50;;
69989;SDS011;57331;52.054;5.294;2023-04-03T14:11:15;6.10;;;2.80;;
69989;SDS011;57331;52.054;5.294;2023-04-03T14:13:53;5.80;;;2.47;;
69989;SDS011;57331;52.054;5.294;2023-04-03T14:16:22;5.47;;;2.50;;
69989;SDS011;57331;52.054;5.294;2023-04-03T14:18:52;4.70;;;2.42;;
69989;SDS011;57331;52.054;5.294;2023-04-03T14:21:19;10.30;;;4.60;;
69989;SDS011;57331;52.054;5.294;2023-04-03T14:23:47;6.40;;;3.00;;
69989;SDS011;57331;52.054;5.294;2023-04-03T14:26:24;5.43;;;2.40;;
69989;SDS011;57331;52.054;5.294;2023-04-03T14:28:54;5.60;;;2.45;;
69989;SDS011;57331;52.054;5.294;2023-04-03T14:31:22;5.32;;;2.65;;
69989;SDS011;57331;52.054;5.294;2023-04-03T14:33:49;6.55;;;2.70;;
69989;SDS011;57331;52.054;5.294;2023-04-03T14:36:18;5.20;;;2.50;;
69989;SDS011;57331;52.054;5.294;2023-04-03T14:38:48;6.67;;;2.40;;
69989;SDS011;57331;52.054;5.294;2023-04-03T14:41:17;5.47;;;2.60;;
69989;SDS011;57331;52.054;5.294;2023-04-03T14:43:46;5.25;;;2.80;;
69989;SDS011;57331;52.054;5.294;2023-04-03T14:48:41;5.53;;;2.70;;
69989;SDS011;57331;52.054;5.294;2023-04-03T14:51:10;4.83;;;2.40;;
69989;SDS011;57331;52.054;5.294;2023-04-03T14:53:38;5.07;;;2.60;;
69989;SDS011;57331;52.054;5.294;2023-04-03T14:56:18;8.73;;;3.13;;
69989;SDS011;57331;52.054;5.294;2023-04-03T14:58:52;6.70;;;2.53;;
69989;SDS011;57331;52.054;5.294;2023-04-03T15:01:23;6.95;;;2.60;;
69989;SDS011;57331;52.054;5.294;2023-04-03T15:03:50;6.90;;;3.10;;
69989;SDS011;57331;52.054;5.294;2023-04-03T15:06:17;5.65;;;2.67;;
69989;SDS011;57331;52.054;5.294;2023-04-03T15:08:46;5.90;;;3.00;;
69989;SDS011;57331;52.054;5.294;2023-04-03T15:11:13;6.28;;;3.00;;
69989;SDS011;57331;52.054;5.294;2023-04-03T15:13:41;5.25;;;2.67;;
69989;SDS011;57331;52.054;5.294;2023-04-03T15:16:18;5.23;;;2.70;;
69989;SDS011;57331;52.054;5.294;2023-04-03T15:18:46;8.70;;;4.20;;
69989;SDS011;57331;52.054;5.294;2023-04-03T15:21:13;8.48;;;3.30;;
69989;SDS011;57331;52.054;5.294;2023-04-03T15:23:41;6.35;;;3.10;;
69989;SDS011;57331;52.054;5.294;2023-04-03T15:26:08;4.97;;;2.55;;
69989;SDS011;57331;52.054;5.294;2023-04-03T15:28:37;5.13;;;2.90;;
69989;SDS011;57331;52.054;5.294;2023-04-03T15:31:06;5.10;;;2.63;;
69989;SDS011;57331;52.054;5.294;2023-04-03T15:33:34;7.10;;;3.10;;
69989;SDS011;57331;52.054;5.294;2023-04-03T15:36:02;5.35;;;2.75;;
69989;SDS011;57331;52.054;5.294;2023-04-03T15:38:33;6.40;;;3.28;;
69989;SDS011;57331;52.054;5.294;2023-04-03T15:41:00;6.13;;;3.30;;
69989;SDS011;57331;52.054;5.294;2023-04-03T15:43:28;6.20;;;3.13;;
69989;SDS011;57331;52.054;5.294;2023-04-03T15:45:56;7.90;;;2.97;;
69989;SDS011;57331;52.054;5.294;2023-04-03T15:48:24;6.20;;;3.00;;
69989;SDS011;57331;52.054;5.294;2023-04-03T15:50:52;6.95;;;3.03;;
69989;SDS011;57331;52.054;5.294;2023-04-03T15:53:21;7.40;;;3.00;;
69989;SDS011;57331;52.054;5.294;2023-04-03T15:55:48;6.90;;;3.03;;
69989;SDS011;57331;52.054;5.294;2023-04-03T15:58:15;6.63;;;3.30;;
69989;SDS011;57331;52.054;5.294;2023-04-03T16:00:42;7.13;;;2.97;;
69989;SDS011;57331;52.054;5.294;2023-04-03T16:03:11;6.47;;;3.38;;
69989;SDS011;57331;52.054;5.294;2023-04-03T16:05:41;6.30;;;3.03;;
69989;SDS011;57331;52.054;5.294;2023-04-03T16:08:09;6.80;;;3.30;;
69989;SDS011;57331;52.054;5.294;2023-04-03T16:10:36;6.85;;;3.20;;
69989;SDS011;57331;52.054;5.294;2023-04-03T16:13:04;6.07;;;2.80;;
69989;SDS011;57331;52.054;5.294;2023-04-03T16:15:31;8.65;;;3.22;;
69989;SDS011;57331;52.054;5.294;2023-04-03T16:18:00;6.83;;;2.77;;
69989;SDS011;57331;52.054;5.294;2023-04-03T16:20:28;7.35;;;3.00;;
69989;SDS011;57331;52.054;5.294;2023-04-03T16:22:57;11.55;;;3.85;;
69989;SDS011;57331;52.054;5.294;2023-04-03T16:25:26;6.50;;;2.90;;
69989;SDS011;57331;52.054;5.294;2023-04-03T16:27:53;6.03;;;3.08;;
69989;SDS011;57331;52.054;5.294;2023-04-03T16:30:20;6.57;;;2.67;;
69989;SDS011;57331;52.054;5.294;2023-04-03T16:32:47;8.27;;;3.60;;
69989;SDS011;57331;52.054;5.294;2023-04-03T16:35:14;7.82;;;3.25;;
69989;SDS011;57331;52.054;5.294;2023-04-03T16:37:41;8.27;;;2.92;;
69989;SDS011;57331;52.054;5.294;2023-04-03T16:40:08;6.38;;;3.00;;
69989;SDS011;57331;52.054;5.294;2023-04-03T16:42:36;7.20;;;2.93;;